createdAt,value
2022-09-21T00:01:48.276Z,2.97
2022-09-21T00:04:49.600Z,3.15
2022-09-21T00:07:51.488Z,3.33
2022-09-21T00:10:52.800Z,3.28
2022-09-21T00:13:56.783Z,2.97
2022-09-21T00:16:58.175Z,2.88
2022-09-21T00:19:59.529Z,2.95
2022-09-21T00:23:00.908Z,3.75
2022-09-21T00:26:14.550Z,3.08
2022-09-21T00:32:17.189Z,2.28
2022-09-21T00:35:18.739Z,2.78
2022-09-21T00:38:20.061Z,2.53
2022-09-21T00:41:22.399Z,2.42
2022-09-21T00:44:32.987Z,2.75
2022-09-21T00:47:38.754Z,2.55
2022-09-21T00:50:47.193Z,2.50
2022-09-21T00:53:55.249Z,2.35
2022-09-21T00:56:57.814Z,2.50
2022-09-21T01:00:04.634Z,2.90
2022-09-21T01:03:08.198Z,2.63
2022-09-21T01:06:09.515Z,2.90
2022-09-21T01:09:11.058Z,2.92
2022-09-21T01:12:31.334Z,2.65
2022-09-21T01:15:58.648Z,2.50
2022-09-21T01:19:27.543Z,2.47
2022-09-21T01:23:14.179Z,2.40
2022-09-21T01:26:30.639Z,2.47
2022-09-21T01:29:47.299Z,2.33
2022-09-21T01:32:57.507Z,2.83
2022-09-21T01:36:11.947Z,2.33
2022-09-21T01:39:14.667Z,3.05
2022-09-21T01:42:18.056Z,2.60
2022-09-21T01:48:25.888Z,2.47
2022-09-21T01:51:28.849Z,3.03
2022-09-21T01:54:39.528Z,2.53
2022-09-21T01:57:55.551Z,3.00
2022-09-21T02:00:58.010Z,2.50
2022-09-21T02:04:04.074Z,2.40
2022-09-21T02:07:07.056Z,2.75
2022-09-21T02:10:14.010Z,2.22
2022-09-21T02:13:18.092Z,2.70
2022-09-21T02:16:39.886Z,2.47
2022-09-21T02:20:03.880Z,2.08
2022-09-21T02:23:08.208Z,2.40
2022-09-21T02:26:17.202Z,2.25
2022-09-21T02:29:33.758Z,1.98
2022-09-21T02:32:54.469Z,2.55
2022-09-21T02:36:01.654Z,2.40
2022-09-21T02:39:33.114Z,1.80
2022-09-21T02:42:38.823Z,2.20
2022-09-21T02:45:52.979Z,1.67
2022-09-21T02:49:20.020Z,1.98
2022-09-21T02:52:22.178Z,2.03
2022-09-21T02:55:24.654Z,1.80
2022-09-21T02:58:28.391Z,2.05
2022-09-21T03:01:31.675Z,1.77
2022-09-21T03:04:33.594Z,2.20
2022-09-21T03:07:35.219Z,2.42
2022-09-21T03:10:36.531Z,2.03
2022-09-21T03:13:37.859Z,2.20
2022-09-21T03:16:39.195Z,2.00
2022-09-21T03:19:40.525Z,1.92
2022-09-21T03:22:44.807Z,2.45
2022-09-21T03:25:46.592Z,3.00
2022-09-21T03:28:49.308Z,2.90
2022-09-21T03:31:50.636Z,2.60
2022-09-21T03:34:51.964Z,2.00
2022-09-21T03:37:53.617Z,2.15
2022-09-21T03:40:54.960Z,2.35
2022-09-21T03:43:56.315Z,2.10
2022-09-21T03:46:57.640Z,2.50
2022-09-21T03:49:58.956Z,2.60
2022-09-21T03:53:00.431Z,2.53
2022-09-21T03:56:01.849Z,2.90
2022-09-21T03:59:03.600Z,3.83
2022-09-21T04:02:04.977Z,3.45
2022-09-21T04:05:07.773Z,3.58
2022-09-21T04:08:09.224Z,3.25
2022-09-21T04:11:14.873Z,2.97
2022-09-21T04:14:16.181Z,3.28
2022-09-21T04:17:17.511Z,3.13
2022-09-21T04:20:19.905Z,3.35
2022-09-21T04:23:21.266Z,3.40
2022-09-21T04:26:29.177Z,3.20
2022-09-21T04:29:30.569Z,3.90
2022-09-21T04:32:32.175Z,4.30
2022-09-21T04:35:34.003Z,4.63
2022-09-21T04:38:35.338Z,5.22
2022-09-21T04:41:37.814Z,5.13
2022-09-21T04:44:39.171Z,3.63
2022-09-21T04:47:40.494Z,4.47
2022-09-21T04:50:41.823Z,4.57
2022-09-21T04:53:44.754Z,5.35
2022-09-21T04:56:46.147Z,4.10
2022-09-21T04:59:47.507Z,3.53
2022-09-21T05:02:48.835Z,3.58
2022-09-21T05:05:54.871Z,3.70
2022-09-21T05:08:56.387Z,3.65
2022-09-21T05:11:57.716Z,3.33
2022-09-21T05:14:59.256Z,4.22
2022-09-21T05:18:00.587Z,3.10
2022-09-21T05:21:03.740Z,3.90
2022-09-21T05:24:05.260Z,4.75
2022-09-21T05:27:06.636Z,5.00
2022-09-21T05:30:09.513Z,4.32
2022-09-21T05:33:16.061Z,4.50
2022-09-21T05:36:26.472Z,3.42
2022-09-21T05:39:28.033Z,4.63
2022-09-21T05:42:29.722Z,4.07
2022-09-21T05:45:31.473Z,3.35
2022-09-21T05:48:43.417Z,3.90
2022-09-21T05:52:03.858Z,3.20
2022-09-21T05:55:54.154Z,3.40
2022-09-21T05:59:28.945Z,3.70
2022-09-21T06:02:46.300Z,3.53
2022-09-21T06:05:47.693Z,4.40
2022-09-21T06:08:49.025Z,6.20
2022-09-21T06:11:50.366Z,5.43
2022-09-21T06:14:51.689Z,6.65
2022-09-21T06:17:53.032Z,6.85
2022-09-21T06:20:54.414Z,9.48
2022-09-21T06:23:55.730Z,8.70
2022-09-21T06:26:57.052Z,6.30
2022-09-21T06:29:58.378Z,6.47
2022-09-21T06:33:00.994Z,6.35
2022-09-21T06:36:02.415Z,5.80
2022-09-21T06:39:03.955Z,5.07
2022-09-21T06:42:05.439Z,4.88
2022-09-21T06:45:07.523Z,5.15
2022-09-21T06:48:09.120Z,5.40
2022-09-21T06:51:10.481Z,5.93
2022-09-21T06:54:11.811Z,5.22
2022-09-21T06:57:13.272Z,6.47
2022-09-21T07:00:14.967Z,6.50
2022-09-21T07:03:16.323Z,5.80
2022-09-21T07:06:18.423Z,6.20
2022-09-21T07:12:41.358Z,6.18
2022-09-21T07:15:42.709Z,6.50
2022-09-21T07:18:44.400Z,5.63
2022-09-21T07:21:45.876Z,6.10
2022-09-21T07:24:47.232Z,5.65
2022-09-21T07:27:48.564Z,5.53
2022-09-21T07:30:50.169Z,5.28
2022-09-21T07:33:56.889Z,5.43
2022-09-21T07:36:58.222Z,5.85
2022-09-21T07:39:59.552Z,6.63
2022-09-21T07:43:01.549Z,6.18
2022-09-21T07:46:02.943Z,6.03
2022-09-21T07:49:04.302Z,6.22
2022-09-21T07:52:09.428Z,6.40
2022-09-21T07:55:12.047Z,6.38
2022-09-21T07:58:13.393Z,5.53
2022-09-21T08:01:14.881Z,5.20
2022-09-21T08:04:16.250Z,4.97
2022-09-21T08:07:17.662Z,5.60
2022-09-21T08:10:19.146Z,5.18
2022-09-21T08:13:20.474Z,4.88
2022-09-21T08:16:22.511Z,4.72
2022-09-21T08:19:23.967Z,3.90
2022-09-21T08:22:25.306Z,4.38
2022-09-21T08:25:26.670Z,4.13
2022-09-21T08:28:28.615Z,4.15
2022-09-21T08:31:30.170Z,3.70
2022-09-21T08:34:31.543Z,4.00
2022-09-21T08:37:32.879Z,3.70
2022-09-21T08:40:34.374Z,4.15
2022-09-21T08:43:41.831Z,3.85
2022-09-21T08:46:46.429Z,3.92
2022-09-21T08:49:53.648Z,3.72
2022-09-21T08:53:03.971Z,3.65
2022-09-21T08:56:05.544Z,3.67
2022-09-21T08:59:13.272Z,3.70
2022-09-21T09:02:42.142Z,3.30
2022-09-21T09:05:52.396Z,6.07
2022-09-21T09:09:02.861Z,6.47
2022-09-21T09:12:22.543Z,5.88
2022-09-21T09:15:46.269Z,6.88
2022-09-21T09:19:19.744Z,6.47
2022-09-21T09:23:01.098Z,6.68
2022-09-21T09:26:08.988Z,6.95
2022-09-21T09:29:24.815Z,6.55
2022-09-21T09:32:39.065Z,6.28
2022-09-21T09:35:50.837Z,6.10
2022-09-21T09:39:02.274Z,5.75
2022-09-21T09:42:23.206Z,5.13
2022-09-21T09:45:33.905Z,3.85
2022-09-21T09:48:42.018Z,3.92
2022-09-21T09:51:43.470Z,4.97
2022-09-21T09:54:44.926Z,4.45
2022-09-21T09:57:48.154Z,4.05
2022-09-21T10:04:09.568Z,3.47
2022-09-21T10:07:18.643Z,3.53
2022-09-21T10:10:22.981Z,3.65
2022-09-21T10:13:31.851Z,3.30
2022-09-21T10:16:40.134Z,2.88
2022-09-21T10:19:41.579Z,3.78
2022-09-21T10:22:52.824Z,3.30
2022-09-21T10:26:01.463Z,2.83
2022-09-21T10:29:22.675Z,2.60
2022-09-21T10:32:25.511Z,5.97
2022-09-21T10:35:27.160Z,12.40
2022-09-21T10:38:28.528Z,5.25
2022-09-21T10:41:29.927Z,3.47
2022-09-21T10:44:43.252Z,4.97
2022-09-21T10:50:50.420Z,4.28
2022-09-21T10:53:53.964Z,3.58
2022-09-21T10:57:03.604Z,3.92
2022-09-21T11:00:23.999Z,3.50
2022-09-21T11:03:40.640Z,2.90
2022-09-21T11:06:49.508Z,3.35
2022-09-21T11:10:00.001Z,2.75
2022-09-21T11:13:26.716Z,2.90
2022-09-21T11:16:54.672Z,2.40
2022-09-21T11:20:33.049Z,2.30
2022-09-21T11:23:52.597Z,1.90
2022-09-21T11:27:00.407Z,1.60
2022-09-21T11:30:11.505Z,1.23
2022-09-21T11:33:43.571Z,1.13
2022-09-21T11:36:56.594Z,0.88
2022-09-21T11:40:19.540Z,0.63
2022-09-21T11:43:26.858Z,0.93
2022-09-21T11:46:42.922Z,1.55
2022-09-21T11:49:44.209Z,1.60
2022-09-21T11:52:56.955Z,0.93
2022-09-21T11:56:25.119Z,0.82
2022-09-21T11:59:34.226Z,0.75
2022-09-21T12:02:48.073Z,0.65
2022-09-21T12:06:07.642Z,0.77
2022-09-21T12:09:38.283Z,0.82
2022-09-21T12:12:55.211Z,0.50
2022-09-21T12:15:59.487Z,0.68
2022-09-21T12:19:23.636Z,1.30
2022-09-21T12:22:27.509Z,1.50
2022-09-21T12:25:34.972Z,1.90
2022-09-21T12:28:42.719Z,1.80
2022-09-21T12:32:05.080Z,1.05
2022-09-21T12:35:14.167Z,1.10
2022-09-21T12:38:55.809Z,1.73
2022-09-21T12:42:01.685Z,0.70
2022-09-21T12:45:23.907Z,1.27
2022-09-21T12:48:36.664Z,0.68
2022-09-21T12:51:43.658Z,0.65
2022-09-21T12:54:59.090Z,1.15
2022-09-21T12:58:34.281Z,0.70
2022-09-21T13:01:45.596Z,1.08
2022-09-21T13:05:20.772Z,0.60
2022-09-21T13:08:31.917Z,0.68
2022-09-21T13:11:34.861Z,0.40
2022-09-21T13:14:44.602Z,0.38
2022-09-21T13:17:46.045Z,0.20
2022-09-21T13:20:48.725Z,0.40
2022-09-21T13:23:58.627Z,0.80
2022-09-21T13:27:00.230Z,0.40
2022-09-21T13:30:43.847Z,0.70
2022-09-21T13:34:19.299Z,0.68
2022-09-21T13:37:20.580Z,0.60
2022-09-21T13:40:21.923Z,0.90
2022-09-21T13:43:24.922Z,0.73
2022-09-21T13:46:35.198Z,0.50
2022-09-21T13:49:46.790Z,0.70
2022-09-21T13:52:53.654Z,0.65
2022-09-21T13:56:01.567Z,0.40
2022-09-21T13:59:02.971Z,0.70
2022-09-21T14:02:22.809Z,0.45
2022-09-21T14:05:33.380Z,0.55
2022-09-21T14:08:48.799Z,0.60
2022-09-21T14:12:22.778Z,0.50
2022-09-21T14:15:24.083Z,0.47
2022-09-21T14:18:37.368Z,0.40
2022-09-21T14:24:42.621Z,0.95
2022-09-21T14:27:46.723Z,0.90
2022-09-21T14:30:53.203Z,0.45
2022-09-21T14:33:57.124Z,0.80
2022-09-21T14:37:03.284Z,0.40
2022-09-21T14:40:32.054Z,0.35
2022-09-21T14:43:36.431Z,1.20
2022-09-21T14:46:55.563Z,0.50
2022-09-21T14:50:30.475Z,0.50
2022-09-21T14:53:34.789Z,0.57
2022-09-21T14:56:50.830Z,0.40
2022-09-21T15:00:21.688Z,0.80
2022-09-21T15:03:52.942Z,0.65
2022-09-21T15:07:30.678Z,0.30
2022-09-21T15:10:37.282Z,0.40
2022-09-21T15:13:58.946Z,0.50
2022-09-21T15:17:00.311Z,0.50
2022-09-21T15:20:16.550Z,1.35
2022-09-21T15:23:19.210Z,0.90
2022-09-21T15:26:23.788Z,0.50
2022-09-21T15:29:28.482Z,0.55
2022-09-21T15:32:47.050Z,0.50
2022-09-21T15:35:48.527Z,0.68
2022-09-21T15:38:51.444Z,0.80
2022-09-21T15:42:14.536Z,0.85
2022-09-21T15:45:18.683Z,0.52
2022-09-21T15:48:24.184Z,0.40
2022-09-21T15:51:35.117Z,0.52
2022-09-21T15:54:48.595Z,0.70
2022-09-21T15:57:52.715Z,0.85
2022-09-21T16:00:55.744Z,0.60
2022-09-21T16:07:25.376Z,0.57
2022-09-21T16:10:29.848Z,0.52
2022-09-21T16:13:32.237Z,0.38
2022-09-21T16:17:11.636Z,0.77
2022-09-21T16:20:19.977Z,0.60
2022-09-21T16:23:23.381Z,0.80
2022-09-21T16:26:28.708Z,0.60
2022-09-21T16:29:43.033Z,0.60
2022-09-21T16:32:44.457Z,0.52
2022-09-21T16:35:45.884Z,1.00
2022-09-21T16:38:47.697Z,1.25
2022-09-21T16:41:55.395Z,1.08
2022-09-21T16:44:57.033Z,0.90
2022-09-21T16:47:59.338Z,1.85
2022-09-21T16:51:00.717Z,1.50
2022-09-21T16:54:02.030Z,15.00
2022-09-21T16:57:06.223Z,28.33
2022-09-21T17:00:11.005Z,12.57
2022-09-21T17:03:12.413Z,9.45
2022-09-21T17:06:15.352Z,5.13
2022-09-21T17:09:20.775Z,4.78
2022-09-21T17:12:22.291Z,4.57
2022-09-21T17:15:24.930Z,3.65
2022-09-21T17:18:26.271Z,2.70
2022-09-21T17:21:27.635Z,2.05
2022-09-21T17:24:49.110Z,1.98
2022-09-21T17:27:50.350Z,1.80
2022-09-21T17:30:53.038Z,1.90
2022-09-21T17:33:54.571Z,1.30
2022-09-21T17:36:55.902Z,2.70
2022-09-21T17:39:57.244Z,1.80
2022-09-21T17:43:13.435Z,1.60
2022-09-21T17:46:39.167Z,4.40
2022-09-21T17:49:40.753Z,5.07
2022-09-21T17:52:44.192Z,3.20
2022-09-21T17:55:53.788Z,4.05
2022-09-21T17:59:01.671Z,2.80
2022-09-21T18:02:18.944Z,2.72
2022-09-21T18:05:24.989Z,2.97
2022-09-21T18:08:28.420Z,2.28
2022-09-21T18:11:38.672Z,2.05
2022-09-21T18:14:48.400Z,2.60
2022-09-21T18:18:17.185Z,3.25
2022-09-21T18:21:21.994Z,2.90
2022-09-21T18:24:31.032Z,3.78
2022-09-21T18:27:33.012Z,3.40
2022-09-21T18:30:37.125Z,2.67
2022-09-21T18:33:59.585Z,3.42
2022-09-21T18:37:32.033Z,2.75
2022-09-21T18:40:44.203Z,2.97
2022-09-21T18:43:59.593Z,3.70
2022-09-21T18:47:27.741Z,2.72
2022-09-21T18:50:46.033Z,3.50
2022-09-21T18:53:50.001Z,2.90
2022-09-21T18:56:51.501Z,3.10
2022-09-21T18:59:53.194Z,3.50
2022-09-21T19:03:15.853Z,2.20
2022-09-21T19:06:31.151Z,1.55
2022-09-21T19:09:44.497Z,2.80
2022-09-21T19:13:09.810Z,3.55
2022-09-21T19:16:23.080Z,3.08
2022-09-21T19:19:47.747Z,3.25
2022-09-21T19:23:02.263Z,3.28
2022-09-21T19:26:20.353Z,2.10
2022-09-21T19:29:49.720Z,2.30
2022-09-21T19:32:53.579Z,2.72
2022-09-21T19:35:55.043Z,2.95
2022-09-21T19:38:56.687Z,2.55
2022-09-21T19:42:09.999Z,1.70
2022-09-21T19:45:34.153Z,1.67
2022-09-21T19:48:43.239Z,1.90
2022-09-21T19:51:52.866Z,2.38
2022-09-21T19:54:54.396Z,2.40
2022-09-21T19:57:55.998Z,2.22
2022-09-21T20:00:57.573Z,1.70
2022-09-21T20:03:59.699Z,1.80
2022-09-21T20:07:13.576Z,2.08
2022-09-21T20:10:31.660Z,1.80
2022-09-21T20:13:43.373Z,2.13
2022-09-21T20:16:53.283Z,2.60
2022-09-21T20:20:02.853Z,3.30
2022-09-21T20:23:04.663Z,3.00
2022-09-21T20:26:20.910Z,3.35
2022-09-21T20:29:22.265Z,3.60
2022-09-21T20:32:23.957Z,3.65
2022-09-21T20:35:27.810Z,3.20
2022-09-21T20:38:29.138Z,4.22
2022-09-21T20:41:30.508Z,3.58
2022-09-21T20:44:31.829Z,3.80
2022-09-21T20:47:33.169Z,3.72
2022-09-21T20:50:34.501Z,3.00
2022-09-21T20:53:35.958Z,3.13
2022-09-21T20:56:37.434Z,2.80
2022-09-21T20:59:38.771Z,2.72
2022-09-21T21:02:40.629Z,2.90
2022-09-21T21:05:42.003Z,2.35
2022-09-21T21:08:43.316Z,2.97
2022-09-21T21:11:44.638Z,2.45
2022-09-21T21:14:45.966Z,2.40
2022-09-21T21:17:47.547Z,2.47
2022-09-21T21:20:48.871Z,3.03
2022-09-21T21:23:51.224Z,3.35
2022-09-21T21:27:08.368Z,2.67
2022-09-21T21:30:11.023Z,3.88
2022-09-21T21:33:12.368Z,3.30
2022-09-21T21:36:13.707Z,3.30
2022-09-21T21:39:15.032Z,3.25
2022-09-21T21:42:17.140Z,3.38
2022-09-21T21:45:18.468Z,3.47
2022-09-21T21:48:19.800Z,2.72
2022-09-21T21:51:21.228Z,2.70
2022-09-21T21:54:24.101Z,2.38
2022-09-21T21:57:25.450Z,2.17
2022-09-21T22:00:26.768Z,2.58
2022-09-21T22:03:28.100Z,2.75
2022-09-21T22:06:31.539Z,3.28
2022-09-21T22:12:34.621Z,2.22
2022-09-21T22:15:35.929Z,3.25
2022-09-21T22:18:37.849Z,2.70
2022-09-21T22:21:42.001Z,2.78
2022-09-21T22:24:43.357Z,2.80
2022-09-21T22:27:44.690Z,2.45
2022-09-21T22:30:49.013Z,2.55
2022-09-21T22:33:50.353Z,2.20
2022-09-21T22:36:51.678Z,2.25
2022-09-21T22:39:52.993Z,2.13
2022-09-21T22:42:54.318Z,2.00
2022-09-21T22:45:55.701Z,2.50
2022-09-21T22:48:57.628Z,2.72
2022-09-21T22:51:58.954Z,2.35
2022-09-21T22:55:00.294Z,2.38
2022-09-21T22:58:01.596Z,2.38
2022-09-21T23:01:15.565Z,2.22
2022-09-21T23:04:17.078Z,2.40
2022-09-21T23:07:18.503Z,2.20
2022-09-21T23:10:21.916Z,2.20
2022-09-21T23:16:25.967Z,2.30
2022-09-21T23:19:27.327Z,2.45
2022-09-21T23:22:28.803Z,2.42
2022-09-21T23:25:30.220Z,2.63
2022-09-21T23:28:32.659Z,3.03
2022-09-21T23:31:34.384Z,2.70
2022-09-21T23:34:35.759Z,2.72
2022-09-21T23:37:37.113Z,2.42
2022-09-21T23:40:38.479Z,2.13
2022-09-21T23:43:41.396Z,2.50
2022-09-21T23:46:42.796Z,2.38
2022-09-21T23:49:44.161Z,2.50
2022-09-21T23:52:45.496Z,2.30
2022-09-21T23:55:46.848Z,2.58
2022-09-21T23:58:49.577Z,3.10
